Latest Weather Observations for Merimbula

IDN60801

Issued at 7:02 am EDT Thursday 19 January 2017 (issued every 30 minutes, with the page automatically refreshed every 10 minutes)

About weather observations | Map of weather stations | Latest weather observations for NSW | Other Formats
Station Details ID: 069147 Name: MERIMBULA AIRPORT AWS Lat: -36.91 Lon: 149.90 Height: 1.5 m
Data from the previous 72 hours. | See also: Recent months at Merimbula
Date/Time
EDT
Temp
°C
App
Temp
°C
Dew
Point
°C
Rel
Hum
%
Delta-T
°C
Wind Press
QNH
hPa
Press
MSL
hPa
Rain since
9am
mm
Dir  Spd
km/h
Gust
km/h
Spd
kts
Gust
kts
19/06:30am 12.9 11.2 8.4 74 2.2 SSW 7 9 4 5 1015.7 1015.7 0.0
19/06:00am 12.4 10.6 7.9 74 2.2 SSW 7 11 4 6 1015.6 1015.6 0.0
19/05:30am 12.1 11.9 8.9 81 1.6 CALM 0 0 0 0 1015.4 1015.4 0.0
19/05:00am 11.1 10.6 7.8 80 1.6 CALM 0 0 0 0 1015.3 1015.3 0.0
19/04:30am 10.2 9.7 8.0 86 1.1 CALM 0 0 0 0 1015.2 1015.2 0.0
19/04:00am 9.8 9.3 7.9 88 0.9 CALM 0 0 0 0 1015.3 1015.3 0.0
19/03:30am 9.9 9.4 7.8 87 1.0 CALM 0 0 0 0 1015.6 1015.6 0.0
19/03:00am 10.5 8.9 8.1 85 1.2 SW 6 9 3 5 1016.1 1016.1 0.0
19/02:30am 11.0 9.2 8.1 82 1.4 SSW 7 9 4 5 1016.5 1016.5 0.0
19/02:00am 11.5 9.4 8.2 80 1.6 SSW 9 11 5 6 1017.1 1017.1 0.0
19/01:30am 11.5 10.0 8.4 81 1.5 WNW 6 7 3 4 1017.5 1017.5 0.0
19/01:00am 12.5 10.9 8.8 78 1.8 WNW 7 11 4 6 1017.6 1017.6 0.0
19/12:30am 12.8 12.4 8.1 73 2.3 CALM 0 0 0 0 1017.7 1017.7 0.0
19/12:00am 13.1 12.4 7.1 67 2.9 CALM 0 0 0 0 1017.6 1017.6 0.0
 
Date/Time
EDT
Temp
°C
App
Temp
°C
Dew
Point
°C
Rel
Hum
%
Delta-T
°C
Wind Press
QNH
hPa
Press
MSL
hPa
Rain since
9am
mm
Dir  Spd
km/h
Gust
km/h
Spd
kts
Gust
kts
18/11:30pm 15.1 12.9 7.9 62 3.6 SSW 9 11 5 6 1017.4 1017.4 0.0
18/11:00pm 15.5 13.5 7.3 58 4.0 S 7 13 4 7 1017.4 1017.4 0.0
18/10:30pm 16.2 13.1 7.2 55 4.5 S 13 20 7 11 1016.9 1016.9 0.0
18/10:00pm 16.7 13.2 7.4 54 4.6 S 15 24 8 13 1016.2 1016.2 0.0
18/09:30pm 17.4 13.1 7.7 53 4.9 S 20 39 11 21 1015.4 1015.4 0.0
18/09:00pm 18.1 12.9 8.7 54 4.9 SSW 26 39 14 21 1014.5 1014.5 0.0
18/08:30pm 18.6 14.6 9.1 54 5.0 S 20 30 11 16 1013.8 1013.8 0.0
18/08:00pm 19.7 15.4 9.3 51 5.5 S 22 33 12 18 1012.9 1012.9 0.0
18/07:30pm 21.0 17.0 8.9 46 6.4 SSW 20 33 11 18 1012.1 1012.1 0.0
18/07:00pm 22.0 18.7 9.5 45 6.7 SSW 17 24 9 13 1011.5 1011.5 0.0
18/06:30pm 22.4 17.8 9.6 44 6.9 SSW 24 39 13 21 1011.2 1011.2 0.0
18/06:00pm 23.1 19.0 10.2 44 7.1 S 22 35 12 19 1010.8 1010.8 0.0
18/05:30pm 23.8 20.0 11.2 45 7.0 SSW 22 39 12 21 1010.3 1010.3 0.0
18/05:09pm 23.1 18.1 10.9 46 6.8 SSW 28 46 15 25 1010.1 1010.1 0.0
18/05:00pm 23.4 17.6 10.8 45 7.0 SSW 32 46 17 25 1010.0 1010.0 0.0
18/04:30pm 23.0 17.4 11.4 48 6.5 SSW 32 50 17 27 1009.7 1009.7 0.0
18/04:00pm 22.7 16.9 11.4 49 6.3 SSW 33 54 18 29 1009.7 1009.7 0.0
18/03:30pm 23.6 19.0 12.3 49 6.4 SSW 28 46 15 25 1009.6 1009.6 0.0
18/03:00pm 23.1 17.3 11.5 48 6.5 S 33 54 18 29 1009.5 1009.5 0.0
18/02:55pm 23.1 18.0 11.8 49 6.4 SSW 30 48 16 26 1009.3 1009.3 0.0
18/02:30pm 22.6 19.5 12.3 52 5.8 S 20 35 11 19 1009.1 1009.1 0.0
18/02:01pm 22.6 18.2 12.8 54 5.6 SSW 28 46 15 25 1008.8 1008.8 0.0
18/02:00pm 22.4 17.6 12.9 55 5.4 SSW 30 46 16 25 1008.7 1008.7 0.0
18/01:32pm 22.6 18.5 13.7 57 5.2 SSW 28 50 15 27 1008.9 1008.9 0.0
18/01:30pm 21.9 17.9 13.0 57 5.1 SSW 26 50 14 27 1008.9 1008.9 0.0
18/01:00pm 21.9 17.6 13.3 58 5.0 SSW 28 50 15 27 1008.7 1008.7 0.0
18/12:35pm 22.2 18.2 14.1 60 4.7 SSW 28 48 15 26 1008.2 1008.2 0.0
18/12:30pm 21.8 17.9 14.4 63 4.3 SSW 28 43 15 23 1008.2 1008.2 0.0
18/12:00pm 22.2 19.7 14.1 60 4.7 S 20 39 11 21 1008.1 1008.1 0.0
18/11:30am 23.2 21.4 14.5 58 5.1 S 17 28 9 15 1007.9 1007.9 0.0
18/11:00am 24.0 21.6 13.8 53 6.0 S 19 30 10 16 1007.5 1007.5 0.0
18/10:30am 25.6 21.5 12.8 45 7.4 SSE 26 35 14 19 1006.8 1006.8 0.0
18/10:00am 27.9 27.4 11.9 37 9.3 WSW 6 17 3 9 1006.4 1006.4 0.0
18/09:30am 26.8 25.6 13.9 45 7.7 S 13 22 7 12 1006.2 1006.2 0.0
18/09:00am 26.6 27.3 12.3 41 8.3 CALM 0 0 0 0 1005.6 1005.6 0.0
18/08:30am 26.3 25.2 12.0 41 8.2 W 9 17 5 9 1005.2 1005.2 0.0
18/08:00am 25.4 25.5 12.6 45 7.4 NW 4 9 2 5 1005.7 1005.7 0.0
18/07:30am 23.3 24.5 13.8 55 5.5 CALM 0 0 0 0 1005.9 1005.9 0.0
18/07:00am 20.6 21.6 13.1 62 4.3 CALM 0 0 0 0 1006.1 1006.1 0.0
18/06:30am 22.2 20.8 12.2 53 5.6 SW 11 15 6 8 1005.8 1005.8 0.0
18/06:00am 22.2 20.9 12.5 54 5.5 SW 11 20 6 11 1005.9 1005.9 0.0
18/05:30am 22.8 21.1 12.4 52 5.9 SW 13 22 7 12 1005.4 1005.4 0.0
18/05:00am 22.2 20.8 13.3 57 5.1 SW 13 20 7 11 1005.0 1005.0 0.0
18/04:30am 21.8 21.3 14.9 65 4.1 S 11 22 6 12 1004.8 1004.8 0.0
18/04:00am 21.6 22.1 16.6 73 3.0 WSW 9 11 5 6 1004.3 1004.3 0.0
18/03:30am 21.7 22.3 17.7 78 2.5 SW 11 15 6 8 1004.1 1004.1 0.0
18/03:00am 21.0 20.6 18.0 83 1.9 SSW 17 32 9 17 1004.7 1004.7 0.0
18/02:30am 21.0 24.0 19.3 90 1.1 W 2 7 1 4 1003.4 1003.4 0.0
18/02:00am 21.3 23.8 19.8 91 1.0 W 6 11 3 6 1004.1 1004.1 0.0
18/01:30am 21.8 25.7 20.4 92 0.9 CALM 0 9 0 5 1004.6 1004.6 0.0
18/01:00am 21.1 22.7 19.2 89 1.2 SW 9 11 5 6 1005.0 1005.0 0.0
18/12:30am 21.3 24.0 19.4 89 1.2 SW 4 9 2 5 1005.7 1005.7 0.0
18/12:00am 22.4 26.6 20.9 91 1.0 CALM 0 0 0 0 1006.5 1006.5 0.0
 
Date/Time
EDT
Temp
°C
App
Temp
°C
Dew
Point
°C
Rel
Hum
%
Delta-T
°C
Wind Press
QNH
hPa
Press
MSL
hPa
Rain since
9am
mm
Dir  Spd
km/h
Gust
km/h
Spd
kts
Gust
kts
17/11:30pm 22.3 26.4 20.8 91 1.0 CALM 0 0 0 0 1007.1 1007.1 0.0
17/11:00pm 22.4 26.5 20.7 90 1.1 CALM 0 0 0 0 1007.6 1007.6 0.0
17/10:30pm 22.3 26.1 20.2 88 1.4 CALM 0 0 0 0 1007.7 1007.7 0.0
17/10:00pm 23.0 27.2 20.9 88 1.4 CALM 0 0 0 0 1007.7 1007.7 0.0
17/09:30pm 23.9 28.6 22.0 89 1.3 CALM 0 0 0 0 1008.1 1008.1 0.0
17/09:00pm 24.4 26.7 22.1 87 1.5 SE 13 20 7 11 1008.0 1008.0 0.0
17/08:30pm 25.6 28.5 21.7 79 2.6 ESE 9 22 5 12 1007.9 1007.9 0.0
17/08:00pm 27.0 30.0 20.1 66 4.5 ESE 4 9 2 5 1007.7 1007.7 0.0
17/07:30pm 28.3 28.9 18.7 56 6.2 SE 13 20 7 11 1007.3 1007.3 0.0
17/07:00pm 30.2 31.0 17.3 46 8.2 ENE 9 17 5 9 1006.6 1006.6 0.0
17/06:30pm 32.2 30.2 11.4 28 12.1 NNE 13 26 7 14 1006.0 1006.0 0.0
17/06:00pm 33.6 31.2 11.5 26 13.0 NNE 15 24 8 13 1005.9 1005.9 0.0
17/05:30pm 33.9 31.4 11.1 25 13.3 NE 15 22 8 12 1006.1 1006.1 0.0
17/05:00pm 34.0 31.7 12.9 28 12.7 NNE 17 26 9 14 1006.3 1006.3 0.0
17/04:30pm 33.2 32.2 15.7 35 10.9 NE 15 22 8 12 1006.3 1006.3 0.0
17/04:00pm 35.0 32.6 12.6 26 13.5 NE 17 33 9 18 1006.3 1006.3 0.0
17/03:30pm 34.9 33.9 15.7 31 12.1 NE 15 24 8 13 1006.6 1006.6 0.0
17/03:00pm 34.6 33.2 14.5 30 12.4 NE 15 24 8 13 1006.6 1006.6 0.0
17/02:30pm 34.6 33.2 14.5 30 12.4 NNE 15 22 8 12 1006.8 1006.8 0.0
17/02:00pm 32.9 32.7 16.7 38 10.3 NNE 13 22 7 12 1007.1 1007.1 0.0
17/01:30pm 31.6 33.1 20.5 51 7.4 NE 13 20 7 11 1007.6 1007.6 0.0
17/01:00pm 30.2 31.4 19.9 54 6.8 ENE 13 19 7 10 1008.3 1008.3 0.0
17/12:30pm 27.9 29.9 19.9 61 5.2 ESE 9 17 5 9 1008.7 1008.7 0.0
17/12:00pm 26.8 28.3 18.9 62 5.1 ESE 9 15 5 8 1009.1 1009.1 0.0
17/11:30am 26.3 28.5 19.7 67 4.3 ESE 7 13 4 7 1009.3 1009.3 0.0
17/11:00am 25.5 26.5 18.7 66 4.3 E 11 17 6 9 1009.4 1009.4 0.0
17/10:30am 26.5 27.2 18.9 63 4.9 ESE 13 17 7 9 1009.6 1009.6 0.0
17/10:00am 24.1 23.9 18.5 71 3.5 ESE 17 20 9 11 1009.9 1009.9 0.0
17/09:30am 25.0 25.4 17.2 62 4.8 SE 11 17 6 9 1009.7 1009.7 0.0
17/09:00am 21.4 23.4 15.9 71 3.3 CALM 0 0 0 0 1009.6 1009.6 0.0
17/08:30am 19.6 20.9 16.1 80 2.1 SW 4 9 2 5 1009.6 1009.6 0.0
17/08:00am 17.4 17.5 15.6 89 1.1 SSW 9 13 5 7 1009.7 1009.7 0.0
17/07:30am 17.2 17.8 15.9 92 0.8 SSW 7 15 4 8 1009.5 1009.5 0.0
17/07:00am 16.6 16.7 15.6 94 0.6 SSW 9 13 5 7 1009.5 1009.5 0.0
17/06:30am 16.1 16.0 15.0 93 0.6 SSW 9 11 5 6 1009.3 1009.3 0.0
17/06:06am 17.4 17.8 16.4 94 0.6 NNW 9 13 5 7 1009.1 1009.1 0.0
17/06:00am 17.3 18.1 16.3 94 0.6 NNW 7 11 4 6 1009.2 1009.2 0.0
17/05:46am 16.3 17.9 15.0 92 0.8 CALM 0 4 0 2 1009.3 1009.3 0.0
17/05:30am 16.8 18.2 15.5 92 0.8 WSW 2 7 1 4 1009.4 1009.4 0.0
17/05:00am 18.7 19.7 17.7 94 0.6 WNW 9 11 5 6 1009.5 1009.5 0.0
17/04:30am 19.1 21.2 18.1 94 0.6 NW 4 9 2 5 1009.4 1009.4 0.0
17/04:00am 19.4 20.3 18.4 94 0.6 NW 11 17 6 9 1009.6 1009.6 0.0
17/03:30am 19.6 19.5 18.8 95 0.5 NW 17 24 9 13 1010.0 1010.0 0.0
17/03:00am 19.2 20.1 18.4 95 0.5 NW 11 15 6 8 1010.5 1010.5 0.0
17/02:30am 18.7 21.3 17.5 93 0.7 CALM 0 0 0 0 1011.1 1011.1 0.0
17/02:10am 18.9 20.3 17.7 93 0.7 NW 7 9 4 5 1011.4 1011.4 0.0
17/02:00am 19.2 21.6 18.0 93 0.7 NW 2 9 1 5 1011.6 1011.6 0.0
17/01:30am 18.6 21.1 17.3 92 0.8 CALM 0 0 0 0 1012.2 1012.2 0.0
17/01:00am 19.2 22.0 18.0 93 0.7 CALM 0 0 0 0 1012.6 1012.6 0.0
17/12:30am 19.3 21.4 18.1 93 0.7 WNW 4 11 2 6 1012.9 1012.9 0.0
17/12:00am 18.9 20.4 17.6 92 0.8 NNW 6 9 3 5 1013.3 1013.3 0.0
 
Date/Time
EDT
Temp
°C
App
Temp
°C
Dew
Point
°C
Rel
Hum
%
Delta-T
°C
Wind Press
QNH
hPa
Press
MSL
hPa
Rain since
9am
mm
Dir  Spd
km/h
Gust
km/h
Spd
kts
Gust
kts
16/11:30pm 19.0 20.4 17.7 92 0.8 SSW 7 11 4 6 1013.7 1013.7 0.0
16/11:23pm 18.9 21.2 17.6 92 0.8 SW 2 9 1 5 1013.7 1013.7 0.0
16/11:00pm 19.1 21.8 17.8 92 0.8 CALM 0 0 0 0 1013.9 1013.9 0.0
16/10:39pm 19.2 21.5 17.7 91 0.9 NW 2 7 1 4 1014.1 1014.1 0.0
16/10:30pm 19.0 21.5 17.3 90 1.0 CALM 0 6 0 3 1014.2 1014.2 0.0
16/10:00pm 19.8 21.5 18.1 90 1.0 WNW 6 9 3 5 1014.3 1014.3 0.0
16/09:30pm 19.3 21.7 16.9 86 1.5 CALM 0 0 0 0 1014.3 1014.3 0.0
16/09:00pm 19.7 22.1 16.9 84 1.7 CALM 0 0 0 0 1014.3 1014.3 0.0
16/08:30pm 20.4 23.0 17.4 83 1.8 CALM 0 6 0 3 1014.3 1014.3 0.0
16/08:00pm 21.6 24.4 18.0 80 2.2 CALM 0 6 0 3 1014.2 1014.2 0.0
16/07:30pm 22.2 23.7 18.0 77 2.6 SE 7 15 4 8 1014.2 1014.2 0.0
16/07:00pm 22.8 23.8 18.6 77 2.6 SE 11 15 6 8 1014.0 1014.0 0.0
16/06:56pm 22.7 23.7 18.7 78 2.5 SSE 11 15 6 8 1014.0 1014.0 0.0
16/06:30pm 23.2 23.7 18.3 74 3.1 SE 13 20 7 11 1013.7 1013.7 0.0
16/06:15pm 23.5 24.0 18.4 73 3.2 SE 13 20 7 11 1013.7 1013.7 0.0
16/06:00pm 23.5 24.2 18.8 75 3.0 SE 13 24 7 13 1013.7 1013.7 0.0
16/05:30pm 23.6 23.4 18.5 73 3.2 SE 17 26 9 14 1013.4 1013.4 0.0
16/05:00pm 23.9 23.3 18.5 72 3.4 SE 19 28 10 15 1013.5 1013.5 0.0
16/04:30pm 24.2 23.8 18.8 72 3.4 SE 19 30 10 16 1013.6 1013.6 0.0
16/04:00pm 23.9 23.0 18.1 70 3.6 SE 20 32 11 17 1013.5 1013.5 0.0
16/03:30pm 24.0 23.1 18.2 70 3.6 SE 20 32 11 17 1013.3 1013.3 0.0
16/03:00pm 24.1 23.2 18.3 70 3.7 SE 20 28 11 15 1013.5 1013.5 0.0
16/02:30pm 24.8 24.4 19.0 70 3.7 SE 19 30 10 16 1013.7 1013.7 0.0
16/02:00pm 24.1 22.8 18.1 69 3.8 SE 22 33 12 18 1013.7 1013.7 0.0
16/01:30pm 26.2 27.3 19.6 67 4.3 E 13 19 7 10 1013.8 1013.8 0.0
16/01:00pm 25.6 25.2 18.0 63 4.8 ENE 17 24 9 13 1013.9 1013.9 0.0
16/12:30pm 25.5 25.2 18.2 64 4.6 E 17 24 9 13 1014.0 1014.0 0.0
16/12:00pm 25.4 24.5 18.1 64 4.6 ENE 20 26 11 14 1014.0 1014.0 0.0
16/11:30am 24.6 23.4 17.6 65 4.4 ENE 20 26 11 14 1014.1 1014.1 0.0
16/11:00am 24.7 24.4 18.2 67 4.1 E 17 22 9 12 1014.3 1014.3 0.0
16/10:30am 24.2 23.1 17.4 65 4.2 E 19 22 10 12 1014.6 1014.6 0.0
16/10:00am 24.2 23.7 17.0 64 4.4 E 15 22 8 12 1014.8 1014.8 0.0
16/09:30am 22.8 23.0 16.8 69 3.7 ESE 11 15 6 8 1015.1 1015.1 0.0
16/09:00am 21.7 21.8 15.5 68 3.7 SE 9 11 5 6 1015.5 1015.5 0.0
16/08:30am 21.6 23.5 15.7 69 3.5 CALM 0 0 0 0 1015.6 1015.6 0.0
16/08:00am 19.5 21.1 15.0 75 2.6 CALM 0 0 0 0 1015.5 1015.5 0.0
16/07:30am 18.3 20.1 15.4 83 1.7 CALM 0 0 0 0 1015.6 1015.6 0.0

Other Formats:

Comma delimited format used in spreadsheet applications
http://www.bom.gov.au/fwo/IDN60801/IDN60801.95929.axf

JavaScript Object Notation format (JSON) in row-major order
http://www.bom.gov.au/fwo/IDN60801/IDN60801.95929.json